Squad war stats
Faction Empire
Rank 236
TrueSkill™ 28,430
Reputation 15,793
Wars 214
Wins 54
Draws 3
Losses 157
Uplinks captured 5,060
Uplinks saved 1,483
Last updated 23 minutes ago
Mu 28.464
Sigma 0.010
Last War 1d
Current War Jedi-awakens
Battle history
Date Opp. skill Opponent Result Score Opp. score Skill result Skill before Mu before Sigma before
2019-02-21 99% Dirty_Dozen WIN 45 4 0 28430 28.464 0.010
2019-02-17 98% Korea-Banta LOSS 21 45 0 28430 28.464 0.010
2019-02-15 99% LightLordRick WIN 45 17 0 28430 28.464 0.010
2019-02-13 100% MexRebelds201 WIN 42 28 0 28430 28.464 0.010
2019-02-09 101% POLAND® LOSS 34 45 0 28430 28.464 0.010
2019-02-06 100% GUARDIANSOFTHE3 LOSS 17 45 -2 28432 28.467 0.010
2019-02-04 97% Rock_Brigade WIN 45 44 0 28432 28.467 0.010
2019-01-28 100% Blackwingrebels LOSS 33 36 +1 28436 28.467 0.009
2019-01-25 99% Ffrost WIN 40 18 0 28436 28.467 0.009
2019-01-23 99% Rebelguardians WIN 45 42 0 28436 28.467 0.009
2019-01-21 99% DrtyR10Rebs WIN 45 6 0 28436 28.467 0.009
2019-01-17 103% Iron_Rebels_Alph LOSS 10 37 0 28436 28.467 0.009
2019-01-15 96% rebeldesBrasil WIN 45 29 0 28436 28.467 0.009
2019-01-13 99% Phoenixrise WIN 45 11 0 28436 28.467 0.009
2019-01-10 99% RedDragon19.1 WIN 45 10 0 28436 28.467 0.009
2019-01-08 101% Jedi_Remnant DRAW 39 39 +298 28138 28.309 0.049
2019-01-06 84% PolishJediPower WIN 45 12 +1 28137 28.308 0.049
2019-01-04 101% ROGUE-SCOUNDRELS LOSS 36 45 +37 28100 28.499 0.114
2019-01-02 100% Rus-Com WIN 44 27 +5 28095 28.498 0.115
2018-12-25 99% Texas-Grit2 WIN 42 13 +67 28028 28.467 0.125
2018-12-23 100% windows-revenge LOSS 38 44 +8 28020 28.501 0.137
2018-12-21 101% nofreeloaders WIN 44 1 +141 27879 28.462 0.167
2018-12-19 98% СССР.USSR WIN 45 40 +94 27785 28.416 0.180
2018-12-17 97% DEUTSCH+2016 WIN 45 43 +78 27707 28.379 0.192
2018-12-01 96% Yoda's-Rebellion LOSS 8 45 0 28337 28.379 0.012
2018-11-20 99% ROMANIA DRAW 45 45 0 28337 28.379 0.012
2018-11-15 100% PiratesLife4me WIN 38 36 +3 28334 28.378 0.013
2018-11-10 100% KARNAGE LOSS 11 44 0 28334 28.378 0.013
2018-11-06 105% NewOrder-Jedi LOSS 5 45 0 28334 28.378 0.013
2018-11-01 101% Force-awakens WIN 29 9 +171 28163 28.293 0.037
2018-10-29 101% DejavuLegion LOSS 17 45 0 28163 28.293 0.037
2018-10-27 100% Sith_Happens04 LOSS 32 44 0 28163 28.293 0.037
2018-10-23 100% EliteGoldSquad LOSS 16 45 -58 28221 28.441 0.063
2018-10-21 87% OragamiYodaLives WIN 36 4 +1 28220 28.439 0.063
2018-10-19 98% Thepeacekeepers WIN 45 4 0 28220 28.439 0.063
2018-10-14 93% Ghost13-Squadron WIN 36 16 +7 28213 28.433 0.063
2018-10-11 98% Balls.Of.Steel LOSS 36 45 -1 28214 28.434 0.063
2018-10-06 100% Rogues-One LOSS 24 45 +1 28213 28.437 0.064
2018-10-04 97% GreeceWarriors WIN 45 0 +3 28210 28.436 0.065
2018-10-02 89% DeutscheRebellen WIN 40 4 +1 28209 28.435 0.065
2018-09-28 100% ReBeL WIN 42 26 +12 28197 28.433 0.067
2018-09-26 100% EliteGoldSquad WIN 45 24 +9 28188 28.431 0.069
2018-09-23 101% Ka9ZrZ WIN 43 19 +210 27978 28.358 0.108
2018-09-21 98% FU8AR LOSS 41 45 -1 27979 28.360 0.109
2018-09-17 102% USA-Rebel-Adults LOSS 19 45 +106 27873 28.700 0.236
2018-09-12 107% NewOrder-Jedi LOSS 23 45 0 27873 28.700 0.236
2018-09-10 104% RodianRebels WIN 43 15 +547 27326 28.521 0.342
2018-09-07 104% YodasMarines LOSS 23 45 +171 27155 28.787 0.466
2018-08-30 108% Coolbreeze WIN 43 42 +1,437 26208 28.238 0.580
2018-08-26 107% Indeland...Jedis LOSS 22 45 +191 26017 28.410 0.684
2018-08-07 108% RUS-ВИТЯЗИacadem LOSS 16 45 +2 27345 28.410 0.304
2018-07-31 103% AUSSIE.REBELS LOSS 25 45 +126 27709 28.575 0.247
2018-07-25 111% PartylikeHAVOC LOSS 27 45 0 27709 28.575 0.247
2018-07-22 97% Silo18 WIN 45 10 +80 27629 28.546 0.262
2018-07-13 100% Greek_Spirit LOSS 16 41 0 28189 28.546 0.102
2018-07-07 102% OZZY-ELITE LOSS 10 45 0 28189 28.546 0.102
2018-07-05 101% GummyBears LOSS 25 42 0 28189 28.547 0.102
2018-07-01 103% Montreal-514 WIN 45 43 +507 27682 28.347 0.190
2018-06-29 107% SpaceBarons LOSS 19 45 0 27682 28.347 0.190
2018-06-26 102% Hungary_Squad LOSS 21 41 +2 27680 28.348 0.191
2018-06-24 104% JeDi LOSS 13 45 +107 27573 28.420 0.242
2018-06-13 101% W.A.R.Jedi LOSS 10 45 +20 28253 28.432 0.051
2018-06-08 102% RUS-ВИТЯЗИacadem LOSS 37 45 0 28253 28.432 0.051
2018-06-05 101% Donate-or-leave2 LOSS 25 36 +53 28200 28.527 0.094
2018-06-01 90% Rogue_Elite_2 WIN 44 16 +4 28196 28.525 0.094
2018-05-27 102% Beru's_Revenge WIN 41 22 +446 27750 28.351 0.172
2018-05-24 108% Italian212th LOSS 16 45 0 27750 28.351 0.172
2018-05-16 107% PartylikeChewy LOSS 12 45 0 27750 28.351 0.172
2018-05-14 92% Rebellen-Germany WIN 45 41 +16 27734 28.342 0.174
2018-05-11 105% Rebel'Horde LOSS 9 45 0 27734 28.342 0.174
2018-05-09 111% IngloriousRebėls LOSS 21 45 0 27734 28.342 0.174
2018-05-05 107% Jedi_Remnant LOSS 17 35 0 27734 28.342 0.174
2018-04-28 108% PartylikePorkins LOSS 20 45 0 27734 28.342 0.174
2018-04-25 104% JeDi LOSS 26 45 +64 27670 28.375 0.201
2018-04-14 105% Italian212th LOSS 7 45 0 28370 28.375 0.001
2018-04-11 108% IngloriousRebėls LOSS 8 45 0 28370 28.375 0.001
2018-04-09 98% WookieWarWagon LOSS 31 45 -518 28888 28.968 0.023
2018-04-06 89% BlastersInSpace WIN 33 22 0 28888 28.968 0.023
2018-04-04 99% Yodasghost WIN 45 32 0 28888 28.968 0.023
2018-03-31 103% Yoda'sMafia LOSS 12 41 0 28888 28.968 0.023
2018-03-28 99% Templar_Academy WIN 41 32 +6 28882 28.962 0.023
2018-03-26 99% Active_Group WIN 33 26 0 28882 28.962 0.023
2018-03-22 101% BrasilBrasukas LOSS 21 38 0 28882 28.962 0.023
2018-03-17 101% Canada.Edmonton LOSS 3 41 0 28882 28.962 0.023
2018-03-12 103% DejavuLegion LOSS 6 45 0 28882 28.962 0.023
2018-03-09 98% Force-2-Naverone WIN 40 17 0 28882 28.962 0.023
2018-03-06 103% Madridatope LOSS 11 45 0 28882 28.962 0.023
2018-03-03 102% AUSSIE.REBELS LOSS 20 45 0 28882 28.962 0.023
2018-03-01 100% TheRebelMachine WIN 40 20 +17 28865 28.947 0.023
2018-02-24 104% Force_Fellowship LOSS 5 45 0 28865 28.947 0.023
2018-02-22 81% Itadreams WIN 45 30 0 28865 28.947 0.023
2018-02-20 99% BeRserKerS WIN 44 27 0 28865 28.947 0.023
2018-02-17 101% WarriorsBG LOSS 37 45 0 28865 28.947 0.023
2018-02-14 62% Nth-battalion WIN 45 35 0 28865 28.947 0.023
2018-02-10 84% PartylikeHAVOC LOSS 11 45 0 28865 28.947 0.023
2018-02-07 99% nonz WIN 45 10 0 28865 28.947 0.023
2018-02-03 104% Force_Fellowship LOSS 14 40 0 28865 28.947 0.023
2018-02-01 95% Templar_Jedi LOSS 35 43 0 28865 28.947 0.023
2018-01-28 101% BigLeagueChewie LOSS 14 45 0 28865 28.947 0.023
2018-01-26 103% Italian212th LOSS 12 45 0 28865 28.947 0.023
2018-01-23 101% ElvenRebels LOSS 37 45 0 28865 28.947 0.023
2018-01-20 97% Ukraine-intern WIN 35 24 +1 28864 28.947 0.024
2018-01-17 98% Donate-or-leave2 DRAW 45 45 0 28864 28.947 0.024
2018-01-15 102% Light-This-Force WIN 41 32 +507 28357 28.635 0.079
2018-01-10 102% WarriorsBG LOSS 10 45 0 28357 28.635 0.079
2018-01-07 103% SenateGuards LOSS 8 45 0 28357 28.635 0.079
2018-01-04 102% China-义军活跃斗士 WIN 45 40 +348 28009 28.502 0.141
2018-01-02 108% DejavuDeathsquad LOSS 24 45 0 28009 28.502 0.141
2017-12-25 101% Rebels'' LOSS 15 34 +4 28005 28.506 0.143
2017-12-22 105% Britain2.0 LOSS 14 45 0 28005 28.506 0.143
2017-12-19 100% JAPANチーム WIN 40 38 +196 27809 28.383 0.164
2017-12-14 108% Marauders-Echo30 LOSS 4 45 0 27809 28.383 0.164
2017-12-09 91% sonsofanakin LOSS 29 43 -21 27830 28.411 0.166
2017-11-30 99% mex4recargado LOSS 15 45 -184 28574 28.703 0.037
2017-11-24 101% DEUTSCH LOSS 11 45 0 28574 28.703 0.037
2017-11-18 103% YAVIN8 LOSS 11 45 0 28574 28.703 0.037
2017-11-16 104% FalloftheEmpire LOSS 13 45 0 28574 28.703 0.037
2017-11-12 104% Czech.Prometheus LOSS 4 43 0 28574 28.703 0.037
2017-11-06 104% Dutch®Empire LOSS 5 42 0 28574 28.703 0.037
2017-11-04 95% NewOrder-respect LOSS 32 35 -1 28575 28.703 0.037
2017-10-31 103% PhoenixAwkns_Aca LOSS 11 45 0 28575 28.703 0.037
2017-10-26 99% TheBucket LOSS 30 38 -161 28736 28.934 0.057
2017-10-24 101% JAPANチーム LOSS 36 45 +11 28725 28.940 0.062
2017-10-20 101% Hurtinem2.0 LOSS 33 45 +20 28705 28.955 0.071
2017-10-16 102% Havoc_Masters LOSS 17 45 0 28705 28.955 0.071
2017-10-11 103% Italia-HanSolo2 LOSS 32 43 0 28705 28.955 0.071
2017-10-07 101% Ewoks-revenge LOSS 29 44 +1 28704 28.955 0.072
2017-10-04 102% JAPAN‐†帝国騎士団†‐ LOSS 7 42 0 28704 28.955 0.072
2017-10-02 109% Marauders-Delta LOSS 5 45 0 28704 28.955 0.072
2017-09-09 100% Ackbar's_Cantina LOSS 25 40 +1 28703 28.956 0.072
2017-09-05 101% Singapore_Jedi LOSS 14 36 0 28703 28.956 0.072
2017-09-01 102% Ewok_revenge WIN 45 42 +611 28092 28.586 0.141
2017-08-28 106% TeamGibson LOSS 4 45 0 28092 28.586 0.141
2017-08-23 101% Amaru'Ka LOSS 17 45 0 28092 28.587 0.141
2017-08-18 105% Britain2.0 LOSS 14 45 0 28092 28.587 0.141
2017-08-15 105% Holland LOSS 15 44 0 28092 28.587 0.141
2017-08-11 103% BRASIL-DOS-JEDIS LOSS 23 39 0 28092 28.587 0.141
2017-08-08 101% Canadian-rebels WIN 44 39 +261 27831 28.471 0.183
2017-08-05 102% Japan-skywalkers LOSS 27 32 +96 27735 28.578 0.241
2017-08-02 96% RebelRepublicans WIN 45 11 +27 27708 28.569 0.246
2017-07-29 104% Rebel_665 LOSS 26 33 +108 27600 28.643 0.298
2017-07-11 103% PiratesLife4me LOSS 29 41 +61 27539 28.686 0.328
2017-07-03 101% WookieWarWagon LOSS 12 40 +47 27632 28.847 0.347
2017-06-29 101% Havoc_Wicket LOSS 2 45 +9 27798 28.861 0.304
2017-06-26 104% PartylikeaBantha LOSS 9 41 +1 27867 28.862 0.284
2017-06-24 103% Ghost13-Squadron WIN 45 38 +775 27162 28.409 0.356
2017-06-22 105% Jedi-Jawas LOSS 8 40 +8 27224 28.412 0.339
2017-06-19 106% Evil_Syndicate LOSS 3 45 +1 27258 28.412 0.330
2017-06-17 103% Sith-CHAOS LOSS 4 45 +9 27389 28.417 0.294
2017-06-14 101% Brasil(RJ) LOSS 42 45 +40 27489 28.517 0.294
2017-06-11 102% ozzydog LOSS 16 45 +57 27502 28.590 0.311
2017-06-08 103% RebeIIion LOSS 6 45 +10 27492 28.598 0.316
2017-06-06 101% Italia-HanSolo2 LOSS 15 45 +25 27677 28.652 0.278
2017-06-04 100% 1°legião LOSS 21 25 +24 27723 28.753 0.294
2017-06-01 96% Rogues_Warriors LOSS 11 39 -8 27801 28.780 0.280
2017-05-29 102% WookieWarWagon LOSS 29 45 +82 27754 28.903 0.328
2017-05-27 105% Italian212th LOSS 6 45 +3 27856 28.904 0.300
2017-05-25 103% Dutch®Empire LOSS 5 45 +8 27918 28.909 0.283
2017-05-23 99% JediChuckNorris WIN 37 30 +267 27721 28.788 0.305
2017-05-21 104% Death_shadow3 LOSS 5 45 +15 27776 28.795 0.291
2017-05-18 102% sith_squad LOSS 23 37 +71 27845 28.935 0.311
2017-05-16 101% havoc_wolves LOSS 9 45 +19 27931 28.965 0.295
2017-05-14 104% Elite-Chaos LOSS 5 45 +32 27969 28.981 0.289
2017-05-11 102% VMAcademy LOSS 20 38 +88 27951 29.100 0.328
2017-04-29 104% BrasilBrasukas LOSS 5 45 +1 28405 29.100 0.199
2017-04-22 103% Force-awakens LOSS 11 45 +17 28598 29.106 0.145
2017-04-18 103% Gouda-Prime LOSS 14 45 +1 28684 29.106 0.121
2017-04-09 102% GreeceWarriors LOSS 9 34 +67 28617 29.151 0.153
2017-03-19 103% ElvenRebels LOSS 12 45 +19 28598 29.157 0.160
2017-03-11 104% Rebelsraiders1 LOSS 22 37 0 28598 29.157 0.160
2017-03-08 110% SpaceBarons LOSS 4 45 0 28598 29.157 0.160
2017-03-03 102% Spanish-Alliance LOSS 5 41 -21 28619 30.265 0.470
2017-03-01 270% Jedi-diah WIN 43 39 +17,676 10943 19.191 2.357
2017-02-25 267% Havoc_Legends LOSS 4 36 +1 10942 19.191 2.357
2017-02-19 269% Empire's_end LOSS 12 44 0 10942 19.191 2.357
2017-02-15 268% 3MPiRE LOSS 7 45 +1 10941 19.191 2.357
2017-02-01 272% JediRebellion LOSS 8 45 0 10941 19.191 2.357
2017-01-15 269% ULTRAS-Brigade LOSS 6 45 0 10941 19.191 2.357
2016-12-27 272% Quantum's_Wrath LOSS 0 45 +1 10940 19.191 2.357
2016-12-14 323% PartylikeChewy LOSS 0 45 0 10940 19.191 2.357
2016-12-07 272% Deutsch_Imp_187 LOSS 4 45 0 10940 19.191 2.357
2016-11-26 274% skyWalker LOSS 6 45 0 10940 19.191 2.357
2016-11-19 268% jedi_wraith LOSS 5 42 0 10940 19.191 2.358
2016-11-14 264% usa-HomeLandSec. LOSS 20 37 +1 10939 19.191 2.358
2016-11-11 270% BlackWing][Elite LOSS 10 43 0 10939 19.191 2.358
2016-11-06 264% RedSquadron383 LOSS 9 40 +1 10938 19.192 2.358
2016-11-01 269% NewOrder-Jedi LOSS 5 41 0 10938 19.192 2.358
2016-10-29 266% Force_Specter LOSS 20 34 0 10938 19.192 2.358
2016-10-26 264% Texas_Garrison LOSS 20 42 +1 10937 19.192 2.358
2016-10-23 254% Singapore-Empire LOSS 6 43 0 10937 19.192 2.359
2016-10-17 266% Solo LOSS 30 44 0 10937 19.192 2.359
2016-10-13 248% Havoc_RogueSith LOSS 9 45 +1 10936 19.192 2.359
2016-10-10 263% force:of:nature LOSS 23 41 0 10936 19.192 2.359
2016-10-06 251% ElvenRebels LOSS 15 38 +2 10934 19.192 2.360
2016-10-03 255% givethemnothing LOSS 31 39 +2 10932 19.192 2.360
2016-10-01 267% Active_Group LOSS 25 42 0 10932 19.193 2.360
2016-09-25 292% Spanish_Rebels_2 LOSS 3 45 0 10932 19.193 2.360
2016-09-20 251% Valencians)rebel LOSS 33 39 +2 10930 19.193 2.361
2016-09-16 283% W.A.R.Heroes LOSS 0 45 0 10930 19.193 2.361
2016-09-12 202% Pedro's-Alliance LOSS 21 41 +16 10914 19.198 2.367
2016-09-04 251% Zeta-Chaos LOSS 4 45 0 10914 19.198 2.367
2016-09-01 293% DejavuDeathsquad LOSS 3 45 0 10914 19.198 2.367
2016-08-28 260% Novus_Speravi LOSS 36 41 0 10914 19.198 2.367
2016-08-15 235% Force-awakens LOSS 17 45 +4 10910 19.198 2.368
2016-08-09 176% Rebel's-Prime LOSS 35 40 +777 10133 19.860 2.779
2016-07-31 292% PartyLikeLando LOSS 2 45 0 10133 19.860 2.779
2016-07-27 217% Sigma-Chaos LOSS 27 43 +120 10013 19.905 2.826
2016-07-23 239% RedSquadron383 LOSS 36 45 +23 9990 19.912 2.835
2016-07-19 155% Russkaya_Sila LOSS 32 45 +303 9687 20.244 3.016
2016-07-15 260% Mings_Marauders LOSS 30 40 +5 9682 20.246 3.018
2016-07-09 29% German-BOLLWERK LOSS 38 39 -3,254 12936 28.054 4.320
2016-07-03 1404800% U-JUSGot-Tbagged WIN 43 35 +12,936 0 18.379 5.893
2016-06-29 953100% Clone_Killers LOSS 12 45 0 0 20.298 6.880
2016-06-25 100% Wolf-Battalion LOSS 4 45 0 0 25.000 8.333
*Note: Wars from before June 22nd 2016 are not included.